Аэропорт: Ханты-Мансийск. Ханты-Мансийск

ICAO: USHH

METAR:
2018/07/16 19:30
USHH 161930Z 15002MPS CAVOK 20/18 Q1015 R06/010060 NOSIG RMK QFE758
METAR:
2018/07/16 18:00
TAF USHH 161657Z 1618/1718 19003MPS 9999 SCT040 
      TEMPO 1620/1624 4000 BR SCT011 
      BECMG 1700/1702 23003G08MPS